Time;durP1;ratioP1;P1;durP2;ratioP2;P2;SDS_P1;SDS_P2;PMS_P1;PMS_P2;Temp;Humidity;BMP_temperature;BMP_pressure;BME280_temperature;BME280_humidity;BME280_pressure;Samples;Min_cycle;Max_cycle;Signal;HPM_P1;HPM_P2
2022/01/15 00:01:49;;;;;;;6.03;5.50;;;-0.60;99.90;;;;;;5112187;28;20195;-69
2022/01/15 00:04:15;;;;;;;5.73;3.90;;;-0.70;99.90;;;;;;5114343;28;20168;-68
2022/01/15 00:06:41;;;;;;;7.33;5.00;;;-0.60;99.90;;;;;;5113932;28;20171;-69
2022/01/15 00:09:06;;;;;;;5.10;4.63;;;-0.70;99.90;;;;;;5112576;28;20174;-69
2022/01/15 00:11:34;;;;;;;4.03;3.63;;;-0.70;99.90;;;;;;5113420;28;20170;-70
2022/01/15 00:14:12;;;;;;;7.40;6.10;;;-0.70;99.90;;;;;;5113891;28;20492;-69
2022/01/15 00:16:55;;;;;;;5.63;5.15;;;-0.70;99.90;;;;;;5114021;28;20160;-70
2022/01/15 00:19:31;;;;;;;7.95;4.00;;;-0.80;99.90;;;;;;5114332;28;20164;-70
2022/01/15 00:21:56;;;;;;;5.10;4.50;;;-0.70;99.90;;;;;;5112409;28;20672;-69
2022/01/15 00:24:24;;;;;;;6.27;5.87;;;-0.70;99.90;;;;;;5113919;28;20177;-71
2022/01/15 00:26:50;;;;;;;9.82;7.03;;;-0.80;99.90;;;;;;5114026;28;20190;-70
2022/01/15 00:29:15;;;;;;;9.55;3.67;;;-0.80;99.90;;;;;;5113685;28;20178;-70
2022/01/15 00:31:41;;;;;;;6.27;5.37;;;-0.90;99.90;;;;;;5113227;28;20183;-69
2022/01/15 00:34:07;;;;;;;5.83;5.33;;;-0.90;99.90;;;;;;5107268;28;20169;-69
2022/01/15 00:36:32;;;;;;;5.37;4.93;;;-0.90;99.90;;;;;;5093307;28;20156;-69
2022/01/15 00:38:58;;;;;;;8.30;5.17;;;-0.90;99.90;;;;;;5093211;28;20168;-68
2022/01/15 00:41:24;;;;;;;11.37;5.27;;;-0.90;99.90;;;;;;5092970;28;20254;-69
2022/01/15 00:43:50;;;;;;;5.43;5.00;;;-0.80;99.90;;;;;;5093306;28;20196;-70
2022/01/15 00:46:15;;;;;;;14.07;8.20;;;-0.80;99.90;;;;;;5093150;28;20165;-70
2022/01/15 00:48:41;;;;;;;9.00;4.50;;;-0.80;99.90;;;;;;5093242;28;20405;-68
2022/01/15 00:51:08;;;;;;;4.17;3.80;;;-0.80;99.90;;;;;;5092827;28;20160;-71
2022/01/15 00:53:33;;;;;;;7.60;4.82;;;-0.80;99.90;;;;;;5092887;28;20275;-69
2022/01/15 00:55:59;;;;;;;6.53;4.40;;;-0.80;99.90;;;;;;5093147;28;20257;-69
2022/01/15 00:58:25;;;;;;;3.90;3.60;;;-0.90;99.90;;;;;;5092993;28;20179;-69
2022/01/15 01:00:50;;;;;;;6.40;5.70;;;-0.90;99.90;;;;;;5093340;28;20183;-69
2022/01/15 01:03:16;;;;;;;4.23;3.93;;;-0.90;99.90;;;;;;5091212;28;20294;-69
2022/01/15 01:05:42;;;;;;;5.40;4.60;;;-1.00;99.90;;;;;;5091727;28;20172;-70
2022/01/15 01:08:07;;;;;;;4.60;4.17;;;-0.90;99.90;;;;;;5093368;28;20514;-68
2022/01/15 01:10:52;;;;;;;5.80;4.70;;;-1.00;99.90;;;;;;5095682;28;20168;-67
2022/01/15 01:23:47;;;;;;;7.63;6.13;;;-0.90;99.90;;;;;;5096704;28;20200;-68
2022/01/15 01:26:25;;;;;;;3.17;2.87;;;-1.00;99.90;;;;;;5096354;28;20535;-69
2022/01/15 01:29:12;;;;;;;9.02;5.82;;;-1.00;99.90;;;;;;5096477;28;20608;-68
2022/01/15 01:31:52;;;;;;;6.40;5.55;;;-0.90;99.90;;;;;;5094472;28;20200;-69
2022/01/15 01:34:18;;;;;;;5.85;5.35;;;-0.90;99.90;;;;;;5104029;28;20495;-69
2022/01/15 01:39:55;;;;;;;4.57;4.18;;;-1.00;99.90;;;;;;5114397;28;20752;-68
2022/01/15 01:45:06;;;;;;;5.93;5.43;;;-1.10;99.90;;;;;;5114240;28;20171;-69
2022/01/15 01:47:41;;;;;;;5.68;5.13;;;-1.10;99.90;;;;;;5114457;28;20173;-69
2022/01/15 01:50:16;;;;;;;5.22;4.80;;;-1.20;99.90;;;;;;5114218;28;20621;-69
2022/01/15 01:52:44;;;;;;;7.00;6.35;;;-1.20;99.90;;;;;;5113708;28;20196;-68
2022/01/15 01:55:10;;;;;;;4.93;4.53;;;-1.20;99.90;;;;;;5114053;28;20230;-71
2022/01/15 01:57:36;;;;;;;7.10;6.40;;;-1.20;99.90;;;;;;5114058;28;20268;-69
2022/01/15 02:00:05;;;;;;;7.38;4.55;;;-1.20;99.90;;;;;;5113867;28;20180;-70
2022/01/15 02:02:31;;;;;;;5.70;4.43;;;-1.20;99.90;;;;;;5113245;28;20298;-71
2022/01/15 02:04:58;;;;;;;4.57;4.30;;;-1.20;99.90;;;;;;5113913;28;20298;-72
2022/01/15 02:07:27;;;;;;;4.00;3.70;;;-1.20;99.90;;;;;;5113818;28;20174;-71
2022/01/15 02:09:55;;;;;;;5.78;5.28;;;-1.20;99.90;;;;;;5114184;28;20179;-69
2022/01/15 02:12:20;;;;;;;13.35;6.15;;;-1.30;99.90;;;;;;5115334;28;20192;-69
2022/01/15 02:14:46;;;;;;;7.17;5.70;;;-1.30;99.90;;;;;;5115736;28;20205;-68
2022/01/15 02:17:17;;;;;;;5.27;4.33;;;-1.30;99.90;;;;;;5115808;28;20405;-70
2022/01/15 02:20:08;;;;;;;6.22;5.82;;;-1.30;99.90;;;;;;5115778;28;20523;-71
2022/01/15 02:25:15;;;;;;;12.63;4.30;;;-1.40;99.90;;;;;;5115668;28;20214;-68
2022/01/15 02:27:41;;;;;;;6.43;4.07;;;-1.50;99.90;;;;;;5115407;28;20198;-70
2022/01/15 02:30:07;;;;;;;7.00;3.80;;;-1.40;99.90;;;;;;5115415;28;20200;-68
2022/01/15 02:32:34;;;;;;;5.47;4.40;;;-1.40;99.90;;;;;;5113705;28;20193;-69
2022/01/15 02:35:02;;;;;;;6.40;5.45;;;-1.50;99.90;;;;;;5101420;28;20176;-69
2022/01/15 02:37:31;;;;;;;7.15;4.70;;;-1.50;99.90;;;;;;5094999;28;20164;-69
2022/01/15 02:39:58;;;;;;;11.45;7.20;;;-1.40;99.90;;;;;;5095017;28;20176;-69
2022/01/15 02:42:27;;;;;;;6.18;4.55;;;-1.50;99.90;;;;;;5093038;28;20204;-70
2022/01/15 02:44:59;;;;;;;6.63;4.57;;;-1.40;99.90;;;;;;5093473;28;20224;-69
2022/01/15 02:50:09;;;;;;;4.90;4.45;;;-1.40;99.90;;;;;;5094830;28;20195;-70
2022/01/15 02:52:35;;;;;;;7.85;4.05;;;-1.40;99.90;;;;;;5094237;28;20662;-70
2022/01/15 02:55:00;;;;;;;5.77;4.77;;;-1.40;99.90;;;;;;5095010;28;20174;-70
2022/01/15 02:57:26;;;;;;;9.97;5.50;;;-1.40;99.90;;;;;;5094727;28;20247;-70
2022/01/15 02:59:52;;;;;;;5.03;4.53;;;-1.40;99.90;;;;;;5094450;28;20171;-71
2022/01/15 03:02:17;;;;;;;6.50;4.70;;;-1.40;99.90;;;;;;5093705;28;20671;-69
2022/01/15 03:04:43;;;;;;;7.13;5.53;;;-1.40;99.90;;;;;;5094559;28;20633;-68
2022/01/15 03:07:10;;;;;;;4.90;4.60;;;-1.40;99.90;;;;;;5094476;28;20170;-71
2022/01/15 03:09:35;;;;;;;7.00;5.50;;;-1.40;99.90;;;;;;5093028;28;20199;-68
2022/01/15 03:12:03;;;;;;;4.80;4.37;;;-1.40;99.90;;;;;;5093774;28;20222;-70
2022/01/15 03:14:31;;;;;;;10.55;5.63;;;-1.40;99.90;;;;;;5094461;28;20767;-69
2022/01/15 03:16:57;;;;;;;3.30;3.10;;;-1.40;99.90;;;;;;5094359;28;20164;-69
2022/01/15 03:19:22;;;;;;;5.37;4.90;;;-1.40;99.90;;;;;;5094356;28;20172;-69
2022/01/15 03:21:48;;;;;;;5.13;4.73;;;-1.40;99.90;;;;;;5093555;28;20203;-70
2022/01/15 03:24:13;;;;;;;6.30;5.60;;;-1.40;99.90;;;;;;5094073;28;20161;-69
2022/01/15 03:26:39;;;;;;;3.57;3.43;;;-1.50;99.90;;;;;;5094124;28;20630;-68
2022/01/15 03:29:05;;;;;;;6.77;4.83;;;-1.50;99.90;;;;;;5094074;28;20528;-69
2022/01/15 03:31:30;;;;;;;4.80;3.37;;;-1.50;99.90;;;;;;5093539;28;20176;-69
2022/01/15 03:33:56;;;;;;;4.67;4.20;;;-1.50;99.90;;;;;;5098148;28;20167;-68
2022/01/15 03:36:22;;;;;;;6.37;3.70;;;-1.50;99.90;;;;;;5114393;28;20168;-69
2022/01/15 03:38:47;;;;;;;6.30;5.30;;;-1.50;99.90;;;;;;5114384;28;20678;-71
2022/01/15 03:41:13;;;;;;;6.23;5.33;;;-1.50;99.90;;;;;;5113974;28;20405;-69
2022/01/15 03:43:39;;;;;;;3.33;2.97;;;-1.40;99.90;;;;;;5114056;28;20200;-69
2022/01/15 03:46:04;;;;;;;4.77;3.93;;;-1.50;99.90;;;;;;5113989;28;20171;-70
2022/01/15 03:48:30;;;;;;;14.60;4.27;;;-1.50;99.90;;;;;;5112771;28;20619;-69
2022/01/15 03:50:56;;;;;;;8.10;4.10;;;-1.50;99.90;;;;;;5112885;28;20457;-70
2022/01/15 03:53:22;;;;;;;8.77;6.90;;;-1.50;99.90;;;;;;5112167;28;20198;-69
2022/01/15 03:55:49;;;;;;;8.65;4.80;;;-1.50;99.90;;;;;;5113939;28;20170;-71
2022/01/15 03:58:15;;;;;;;4.50;4.13;;;-1.50;99.90;;;;;;5112690;28;20284;-69
2022/01/15 04:00:40;;;;;;;4.70;4.13;;;-1.50;99.90;;;;;;5112628;28;20258;-71
2022/01/15 04:03:06;;;;;;;4.87;4.57;;;-1.40;99.90;;;;;;5113094;28;20525;-70
2022/01/15 04:05:32;;;;;;;4.77;4.47;;;-1.40;99.90;;;;;;5113962;28;20570;-69
2022/01/15 04:07:58;;;;;;;6.40;3.77;;;-1.50;99.90;;;;;;5113778;28;20405;-69
2022/01/15 04:10:23;;;;;;;12.73;7.50;;;-1.50;99.90;;;;;;5113740;28;20428;-68
2022/01/15 04:12:49;;;;;;;3.87;3.57;;;-1.50;99.90;;;;;;5113431;28;20328;-71
2022/01/15 04:15:16;;;;;;;8.10;5.87;;;-1.50;99.90;;;;;;5114180;28;20221;-70
2022/01/15 04:17:44;;;;;;;5.80;5.20;;;-1.50;99.90;;;;;;5114038;28;20176;-70
2022/01/15 04:20:11;;;;;;;4.40;4.10;;;-1.50;99.90;;;;;;5113576;28;20526;-70
2022/01/15 04:22:36;;;;;;;5.32;4.82;;;-1.60;99.90;;;;;;5113246;28;20276;-69
2022/01/15 04:25:03;;;;;;;5.80;5.27;;;-1.60;99.90;;;;;;5113691;28;20562;-69
2022/01/15 04:27:28;;;;;;;4.57;4.10;;;-1.60;99.90;;;;;;5113868;28;20401;-67
2022/01/15 04:29:56;;;;;;;6.17;5.70;;;-1.60;99.90;;;;;;5113793;28;20251;-70
2022/01/15 04:32:22;;;;;;;5.38;3.75;;;-1.50;99.90;;;;;;5113168;28;20191;-70
2022/01/15 04:34:48;;;;;;;4.57;4.23;;;-1.50;99.90;;;;;;5101505;28;20634;-70
2022/01/15 04:37:19;;;;;;;6.47;4.72;;;-1.60;99.90;;;;;;5093483;28;20949;-69
2022/01/15 04:39:45;;;;;;;6.28;5.68;;;-1.60;99.90;;;;;;5093605;28;20171;-69
2022/01/15 04:42:11;;;;;;;4.35;3.97;;;-1.60;99.90;;;;;;5092948;28;20193;-69
2022/01/15 04:44:37;;;;;;;16.90;7.22;;;-1.60;99.90;;;;;;5094461;28;20164;-69
2022/01/15 04:47:03;;;;;;;7.18;4.50;;;-1.60;99.90;;;;;;5097766;28;20526;-71
2022/01/15 04:49:30;;;;;;;6.32;5.68;;;-1.60;99.90;;;;;;5096912;28;20252;-69
2022/01/15 04:51:56;;;;;;;4.72;3.70;;;-1.60;99.90;;;;;;5096944;28;20515;-69
2022/01/15 04:54:21;;;;;;;3.17;2.97;;;-1.70;99.90;;;;;;5097059;28;20172;-70
2022/01/15 04:56:47;;;;;;;4.37;4.07;;;-1.60;99.90;;;;;;5096982;28;20169;-69
2022/01/15 04:59:12;;;;;;;4.57;4.17;;;-1.60;99.90;;;;;;5099426;28;20171;-69
2022/01/15 05:01:38;;;;;;;3.97;3.40;;;-1.60;99.90;;;;;;5096397;28;20180;-70
2022/01/15 05:04:04;;;;;;;2.73;2.63;;;-1.60;99.90;;;;;;5096989;28;20175;-70
2022/01/15 05:06:29;;;;;;;7.90;2.77;;;-1.70;99.90;;;;;;5096679;28;20169;-69
2022/01/15 05:09:04;;;;;;;5.53;5.00;;;-1.60;99.90;;;;;;5097118;28;20214;-68
2022/01/15 05:11:44;;;;;;;3.85;3.55;;;-1.70;99.90;;;;;;5096364;28;20164;-68
2022/01/15 05:14:11;;;;;;;6.13;5.40;;;-1.70;99.90;;;;;;5096673;28;20177;-69
2022/01/15 05:16:37;;;;;;;3.17;3.03;;;-1.60;99.90;;;;;;5096398;28;20173;-70
2022/01/15 05:19:03;;;;;;;4.18;3.88;;;-1.70;99.90;;;;;;5096451;28;20166;-68
2022/01/15 05:21:29;;;;;;;11.43;5.28;;;-1.70;99.90;;;;;;5096033;28;20229;-70
2022/01/15 05:23:54;;;;;;;6.03;5.43;;;-1.80;99.90;;;;;;5096188;28;20196;-69
2022/01/15 05:26:20;;;;;;;5.03;4.13;;;-1.70;99.90;;;;;;5096575;28;20176;-70
2022/01/15 05:28:46;;;;;;;3.90;3.67;;;-1.80;99.90;;;;;;5096491;28;20176;-70
2022/01/15 05:31:12;;;;;;;5.00;4.70;;;-1.70;99.90;;;;;;5096086;28;20223;-70
2022/01/15 05:33:37;;;;;;;3.75;3.45;;;-1.80;99.90;;;;;;5098162;28;20190;-69
2022/01/15 05:36:03;;;;;;;4.10;3.80;;;-1.80;99.90;;;;;;5116565;28;20175;-68
2022/01/15 05:38:29;;;;;;;3.40;3.20;;;-1.80;99.90;;;;;;5116560;28;20257;-68
2022/01/15 05:40:54;;;;;;;3.90;3.67;;;-1.80;99.90;;;;;;5116382;28;20450;-68
2022/01/15 05:43:20;;;;;;;8.50;3.07;;;-1.80;99.90;;;;;;5116119;28;20187;-68
2022/01/15 05:45:46;;;;;;;5.13;3.00;;;-1.80;99.90;;;;;;5116766;28;20225;-69
2022/01/15 05:48:12;;;;;;;5.00;3.97;;;-1.80;99.90;;;;;;5116406;28;20165;-69
2022/01/15 05:50:38;;;;;;;4.70;4.30;;;-1.80;99.90;;;;;;5116181;28;20169;-70
2022/01/15 05:53:03;;;;;;;4.73;4.27;;;-1.80;99.90;;;;;;5115829;28;20728;-70
2022/01/15 05:55:29;;;;;;;3.93;3.63;;;-1.90;99.90;;;;;;5116163;28;20256;-70
2022/01/15 05:57:54;;;;;;;3.27;3.07;;;-1.90;99.90;;;;;;5116158;28;20175;-71
2022/01/15 06:00:20;;;;;;;4.20;2.50;;;-1.90;99.90;;;;;;5114621;28;20168;-70
2022/01/15 06:02:46;;;;;;;7.60;7.00;;;-1.90;99.90;;;;;;5115378;28;20203;-68
2022/01/15 06:05:12;;;;;;;4.60;4.20;;;-1.90;99.90;;;;;;5116114;28;20159;-69
2022/01/15 06:07:37;;;;;;;3.33;3.03;;;-1.80;99.90;;;;;;5116093;28;20167;-69
2022/01/15 06:10:04;;;;;;;9.10;4.63;;;-1.80;99.90;;;;;;5116191;28;20176;-67
2022/01/15 06:12:32;;;;;;;5.22;4.82;;;-1.80;99.90;;;;;;5115518;28;20188;-68
2022/01/15 06:14:58;;;;;;;6.85;4.97;;;-1.80;99.90;;;;;;5115696;28;20250;-69
2022/01/15 06:17:24;;;;;;;5.60;4.20;;;-1.90;99.90;;;;;;5115736;28;20172;-69
2022/01/15 06:19:50;;;;;;;6.07;4.33;;;-1.90;99.90;;;;;;5115901;28;20179;-70
2022/01/15 06:22:16;;;;;;;4.67;4.37;;;-1.80;99.90;;;;;;5115072;28;20464;-69
2022/01/15 06:24:41;;;;;;;8.90;6.73;;;-1.90;99.90;;;;;;5115642;27;20175;-69
2022/01/15 06:27:11;;;;;;;7.53;5.30;;;-1.90;99.90;;;;;;5115620;27;20168;-69
2022/01/15 06:29:38;;;;;;;4.00;3.70;;;-1.90;99.90;;;;;;5115715;28;20411;-68
2022/01/15 06:32:04;;;;;;;4.22;3.90;;;-1.90;99.90;;;;;;5113759;28;20196;-70
2022/01/15 06:34:29;;;;;;;5.60;5.30;;;-1.90;99.90;;;;;;5106246;28;20356;-67
2022/01/15 06:36:55;;;;;;;5.13;4.73;;;-1.90;99.90;;;;;;5095151;28;20254;-68
2022/01/15 06:39:21;;;;;;;4.57;4.10;;;-1.90;99.90;;;;;;5093613;28;20238;-70
2022/01/15 06:41:46;;;;;;;3.63;3.17;;;-2.00;99.90;;;;;;5094379;28;20200;-67
2022/01/15 06:44:12;;;;;;;2.80;2.67;;;-2.00;99.90;;;;;;5094771;28;20658;-69
2022/01/15 06:46:38;;;;;;;5.30;4.90;;;-2.00;99.90;;;;;;5094728;28;20239;-70
2022/01/15 06:49:03;;;;;;;11.07;4.40;;;-2.00;99.90;;;;;;5098457;28;20199;-68
2022/01/15 06:51:29;;;;;;;4.40;4.00;;;-2.00;99.90;;;;;;5094025;28;20177;-68
2022/01/15 06:53:55;;;;;;;5.90;4.20;;;-2.10;99.90;;;;;;5094567;28;20219;-69
2022/01/15 06:56:20;;;;;;;3.20;3.10;;;-2.10;99.90;;;;;;5129675;27;20179;-70
2022/01/15 06:58:46;;;;;;;2.80;2.60;;;-2.10;99.90;;;;;;5135308;27;20202;-67
2022/01/15 07:01:11;;;;;;;5.03;3.77;;;-2.10;99.90;;;;;;5135040;27;20177;-70
2022/01/15 07:03:37;;;;;;;5.93;3.90;;;-2.10;99.90;;;;;;5133749;27;20576;-71
2022/01/15 07:06:03;;;;;;;4.17;3.80;;;-2.10;99.90;;;;;;5135167;27;20636;-69
2022/01/15 07:08:29;;;;;;;4.20;3.90;;;-2.00;99.90;;;;;;5117109;27;20228;-69
2022/01/15 07:10:54;;;;;;;4.17;3.97;;;-2.00;99.90;;;;;;5114893;28;20236;-67
2022/01/15 07:13:20;;;;;;;5.37;4.87;;;-2.10;99.90;;;;;;5112717;28;20596;-67
2022/01/15 07:15:49;;;;;;;6.47;4.50;;;-2.10;99.90;;;;;;5114524;28;20163;-69
2022/01/15 07:18:16;;;;;;;7.50;5.55;;;-2.00;99.90;;;;;;5114329;28;20175;-69
2022/01/15 07:20:42;;;;;;;8.30;5.78;;;-2.10;99.90;;;;;;5113110;28;20175;-70
2022/01/15 07:23:09;;;;;;;3.80;3.50;;;-2.10;99.90;;;;;;5114074;28;20662;-68
2022/01/15 07:25:34;;;;;;;5.45;4.35;;;-2.00;99.90;;;;;;5114369;28;20171;-71
2022/01/15 07:28:00;;;;;;;6.17;5.63;;;-2.00;99.90;;;;;;5115466;28;20521;-70
2022/01/15 07:30:26;;;;;;;15.97;12.20;;;-2.00;99.90;;;;;;5114253;28;20171;-69
2022/01/15 07:32:51;;;;;;;18.63;14.73;;;-1.90;99.90;;;;;;5124273;27;20209;-70
2022/01/15 07:35:18;;;;;;;10.40;9.60;;;-1.90;99.90;;;;;;5118199;27;20633;-68
2022/01/15 07:37:44;;;;;;;11.35;8.05;;;-1.90;99.90;;;;;;5112713;28;20197;-68
2022/01/15 07:40:11;;;;;;;10.25;9.20;;;-1.80;99.90;;;;;;5114167;28;20173;-69
2022/01/15 07:42:39;;;;;;;13.85;12.35;;;-1.70;99.90;;;;;;5113523;28;20232;-70
2022/01/15 07:45:07;;;;;;;11.00;7.35;;;-1.40;99.90;;;;;;5131825;27;20174;-68
2022/01/15 07:47:33;;;;;;;8.05;7.28;;;-1.10;99.90;;;;;;5134696;27;20528;-69
2022/01/15 07:49:59;;;;;;;9.27;8.13;;;-0.90;99.90;;;;;;5134564;27;20169;-70
2022/01/15 07:52:25;;;;;;;12.13;8.47;;;-0.60;99.90;;;;;;5132774;27;20520;-71
2022/01/15 07:54:51;;;;;;;8.00;7.35;;;-0.30;99.90;;;;;;5117438;27;20186;-68
2022/01/15 07:57:17;;;;;;;7.30;6.43;;;-0.10;99.90;;;;;;5113151;28;20171;-68
2022/01/15 07:59:42;;;;;;;8.10;6.60;;;0.00;99.90;;;;;;5114779;28;20216;-68
2022/01/15 08:02:08;;;;;;;8.13;7.10;;;0.00;99.90;;;;;;5091596;28;20545;-68
2022/01/15 08:04:34;;;;;;;10.30;6.97;;;0.00;99.90;;;;;;5091535;28;20168;-68
2022/01/15 08:06:59;;;;;;;9.03;8.37;;;-0.10;99.90;;;;;;5092947;28;20168;-69
2022/01/15 08:09:25;;;;;;;7.70;6.40;;;0.00;99.90;;;;;;5091804;28;20440;-68
2022/01/15 08:11:51;;;;;;;7.87;7.07;;;0.00;99.90;;;;;;5092749;28;20258;-71
2022/01/15 08:14:16;;;;;;;27.13;9.10;;;0.00;99.90;;;;;;5092843;28;20250;-69
2022/01/15 08:16:42;;;;;;;6.60;6.00;;;0.00;99.90;;;;;;5092914;28;20193;-68
2022/01/15 08:19:08;;;;;;;8.13;5.30;;;0.10;99.90;;;;;;5095297;28;20187;-69
2022/01/15 08:21:35;;;;;;;11.63;7.80;;;0.20;99.90;;;;;;5096689;28;20171;-69
2022/01/15 08:24:00;;;;;;;8.48;5.95;;;0.20;99.90;;;;;;5096752;28;20192;-68
2022/01/15 08:26:26;;;;;;;12.30;5.60;;;0.30;99.90;;;;;;5097139;28;20167;-66
2022/01/15 08:28:52;;;;;;;10.80;5.90;;;0.40;99.90;;;;;;5096713;28;20179;-74
2022/01/15 08:31:19;;;;;;;5.73;5.30;;;0.50;99.90;;;;;;5095464;28;20168;-69
2022/01/15 08:33:45;;;;;;;11.90;6.78;;;0.80;99.90;;;;;;5099854;28;20522;-66
2022/01/15 08:36:11;;;;;;;11.60;9.00;;;1.40;99.90;;;;;;5117424;28;20186;-68
2022/01/15 08:38:37;;;;;;;10.40;9.30;;;2.20;99.90;;;;;;5114869;28;20252;-69
2022/01/15 08:41:02;;;;;;;7.80;6.97;;;2.90;99.90;;;;;;5108298;28;20461;-67
2022/01/15 08:43:28;;;;;;;10.83;7.50;;;3.50;99.90;;;;;;5114947;28;20228;-67
2022/01/15 08:45:54;;;;;;;10.17;8.13;;;4.20;99.90;;;;;;5115968;28;20228;-68
2022/01/15 08:48:19;;;;;;;12.00;7.67;;;4.80;99.90;;;;;;5116408;28;20530;-69
2022/01/15 08:50:49;;;;;;;9.07;8.13;;;5.40;99.90;;;;;;5115701;28;20175;-68
2022/01/15 08:53:17;;;;;;;6.72;6.07;;;5.90;99.90;;;;;;5116184;28;20191;-66
2022/01/15 08:55:43;;;;;;;7.07;6.40;;;6.40;99.90;;;;;;5117257;28;20180;-68
2022/01/15 08:58:09;;;;;;;8.30;6.90;;;6.90;99.90;;;;;;5117140;28;20607;-68
2022/01/15 09:00:35;;;;;;;8.30;7.37;;;7.30;99.90;;;;;;5116705;28;20405;-67
2022/01/15 09:03:00;;;;;;;8.00;7.20;;;7.60;99.90;;;;;;5116046;28;20214;-67
2022/01/15 09:05:26;;;;;;;8.33;7.50;;;8.10;99.90;;;;;;5116540;28;20167;-69
2022/01/15 09:07:54;;;;;;;11.17;8.50;;;8.50;99.90;;;;;;5116560;28;20163;-66
2022/01/15 09:10:20;;;;;;;10.03;8.83;;;8.80;99.00;;;;;;5116612;28;20832;-67
2022/01/15 09:12:46;;;;;;;11.20;8.77;;;8.90;97.60;;;;;;5115995;28;20508;-66
2022/01/15 09:15:12;;;;;;;11.73;9.57;;;9.00;97.00;;;;;;5116603;27;20175;-64
2022/01/15 09:17:37;;;;;;;12.33;8.20;;;9.00;95.50;;;;;;5116147;28;20213;-68
2022/01/15 09:20:04;;;;;;;10.07;8.87;;;9.10;95.50;;;;;;5116406;28;20403;-67
2022/01/15 09:22:30;;;;;;;9.73;8.83;;;9.20;95.50;;;;;;5115860;28;20545;-67
2022/01/15 09:24:55;;;;;;;9.50;8.13;;;9.40;94.70;;;;;;5116492;28;20399;-68
2022/01/15 09:30:12;;;;;;;11.53;8.60;;;9.70;94.10;;;;;;5115563;28;20183;-64
2022/01/15 09:32:43;;;;;;;9.47;8.67;;;9.80;93.30;;;;;;5115809;28;20422;-65
2022/01/15 09:35:10;;;;;;;8.40;7.60;;;9.70;93.00;;;;;;5101439;28;20415;-68
2022/01/15 09:37:36;;;;;;;11.77;9.73;;;9.70;93.50;;;;;;5095959;28;20417;-67
2022/01/15 09:40:03;;;;;;;9.80;8.93;;;9.80;93.00;;;;;;5095720;28;20412;-65
2022/01/15 09:42:28;;;;;;;13.07;9.70;;;9.90;92.80;;;;;;5095380;28;20810;-67
2022/01/15 09:44:54;;;;;;;11.60;8.70;;;9.90;93.60;;;;;;5095750;28;20387;-66
2022/01/15 09:47:22;;;;;;;9.70;8.80;;;10.10;92.60;;;;;;5095861;28;20179;-67
2022/01/15 09:49:48;;;;;;;9.83;8.17;;;10.20;92.00;;;;;;5095721;28;20312;-66
2022/01/15 09:52:16;;;;;;;14.07;8.33;;;10.30;92.20;;;;;;5095295;28;20798;-66
2022/01/15 09:54:42;;;;;;;9.50;8.07;;;10.40;92.10;;;;;;5095702;28;20406;-65
2022/01/15 09:57:08;;;;;;;9.93;8.97;;;10.20;91.80;;;;;;5095622;28;20771;-66
2022/01/15 09:59:34;;;;;;;8.27;7.53;;;10.00;92.20;;;;;;5095675;28;20404;-65
2022/01/15 10:02:02;;;;;;;10.10;9.10;;;10.00;92.60;;;;;;5094952;28;21012;-65
2022/01/15 10:04:32;;;;;;;12.73;9.30;;;10.10;92.50;;;;;;5095725;28;20186;-66
2022/01/15 10:07:22;;;;;;;10.63;9.50;;;10.00;92.90;;;;;;5097389;28;20490;-66
2022/01/15 10:09:49;;;;;;;11.47;9.00;;;10.00;92.40;;;;;;5097211;28;20404;-66
2022/01/15 10:12:32;;;;;;;10.80;8.50;;;9.90;93.40;;;;;;5098508;28;20421;-67
2022/01/15 10:15:05;;;;;;;14.30;10.27;;;9.80;93.00;;;;;;5117651;28;20964;-66
2022/01/15 10:17:33;;;;;;;12.50;9.93;;;9.40;93.30;;;;;;5095682;28;20760;-65
2022/01/15 10:20:01;;;;;;;11.03;9.90;;;9.40;94.30;;;;;;5095421;28;20901;-63
2022/01/15 10:22:28;;;;;;;11.87;10.30;;;9.40;93.90;;;;;;5095131;28;20786;-64
2022/01/15 10:25:05;;;;;;;10.03;7.93;;;9.50;93.80;;;;;;5095047;28;20835;-67
2022/01/15 10:27:32;;;;;;;10.57;8.37;;;9.40;93.90;;;;;;5094748;28;20376;-66
2022/01/15 10:30:07;;;;;;;9.63;8.50;;;9.30;93.80;;;;;;5100816;28;20441;-63
2022/01/15 10:32:36;;;;;;;10.73;8.90;;;9.20;94.20;;;;;;5104928;28;20438;-67
2022/01/15 10:35:14;;;;;;;13.27;9.33;;;9.30;94.70;;;;;;5099515;28;20901;-68
2022/01/15 10:37:48;;;;;;;10.73;8.60;;;9.50;94.40;;;;;;5094394;28;20410;-66
2022/01/15 10:40:14;;;;;;;9.10;8.00;;;9.60;94.00;;;;;;5094428;28;20406;-66
2022/01/15 10:42:41;;;;;;;10.53;8.97;;;9.60;94.20;;;;;;5092857;28;20545;-68
2022/01/15 10:45:13;;;;;;;12.87;9.90;;;9.60;94.20;;;;;;5094398;28;20402;-69
2022/01/15 10:47:43;;;;;;;11.30;8.60;;;9.50;94.40;;;;;;5092907;28;20414;-68
2022/01/15 10:50:17;;;;;;;9.47;8.57;;;9.30;94.50;;;;;;5094238;28;20867;-67
2022/01/15 10:52:43;;;;;;;10.03;8.77;;;9.20;94.70;;;;;;5093841;28;20509;-67
2022/01/15 10:55:15;;;;;;;11.00;9.90;;;9.20;95.20;;;;;;5094218;28;20409;-66
2022/01/15 10:57:42;;;;;;;11.27;9.57;;;8.90;95.10;;;;;;5102493;28;20168;-67
2022/01/15 11:00:20;;;;;;;11.67;8.43;;;8.90;95.70;;;;;;5114408;27;20411;-67
2022/01/15 11:02:56;;;;;;;12.20;10.30;;;8.80;95.90;;;;;;5112612;28;20432;-65
2022/01/15 11:05:32;;;;;;;10.97;9.80;;;8.80;96.30;;;;;;5113449;28;20440;-66
2022/01/15 11:08:08;;;;;;;15.53;9.50;;;8.50;95.80;;;;;;5114438;28;20375;-67
2022/01/15 11:10:38;;;;;;;11.80;8.90;;;8.40;96.10;;;;;;5114504;28;20825;-64
2022/01/15 11:13:06;;;;;;;11.50;9.70;;;8.10;96.50;;;;;;5112674;28;20435;-69
2022/01/15 11:15:34;;;;;;;9.50;8.47;;;7.80;96.90;;;;;;5114394;28;20396;-69
2022/01/15 11:18:01;;;;;;;10.37;9.03;;;7.80;97.50;;;;;;5113884;28;20891;-68
2022/01/15 11:20:31;;;;;;;11.43;8.93;;;7.60;97.40;;;;;;5113944;28;20407;-69
2022/01/15 11:22:56;;;;;;;12.32;8.35;;;7.10;97.40;;;;;;5113264;28;20204;-70
2022/01/15 11:25:22;;;;;;;13.60;9.53;;;6.60;98.20;;;;;;5112842;28;20633;-68
2022/01/15 11:27:49;;;;;;;14.07;9.03;;;6.10;99.20;;;;;;5114347;28;20262;-68
2022/01/15 11:30:18;;;;;;;13.85;9.93;;;5.40;99.90;;;;;;5114084;28;20909;-69
2022/01/15 11:32:44;;;;;;;15.70;9.35;;;4.90;99.90;;;;;;5113654;28;20209;-69
2022/01/15 11:35:10;;;;;;;10.40;8.60;;;4.60;99.90;;;;;;5113902;28;20170;-68
2022/01/15 11:37:49;;;;;;;10.40;8.75;;;4.40;99.90;;;;;;5113561;28;20759;-69
2022/01/15 11:40:35;;;;;;;9.40;7.75;;;4.20;99.90;;;;;;5112322;28;20168;-69
2022/01/15 11:43:27;;;;;;;16.50;9.48;;;4.10;99.90;;;;;;5113321;28;20547;-69
2022/01/15 11:45:58;;;;;;;13.35;9.52;;;4.00;99.90;;;;;;5112571;28;20168;-69
2022/01/15 11:48:27;;;;;;;14.63;8.50;;;3.90;99.90;;;;;;5113818;28;20259;-67
2022/01/15 11:51:14;;;;;;;14.98;9.35;;;3.80;99.90;;;;;;5113895;28;20160;-69
2022/01/15 11:54:01;;;;;;;10.52;7.93;;;3.80;99.90;;;;;;5113465;28;20191;-67
2022/01/15 11:56:46;;;;;;;13.63;8.80;;;3.80;99.90;;;;;;5113633;28;20637;-68
2022/01/15 11:59:27;;;;;;;14.10;9.77;;;3.80;99.90;;;;;;5103941;28;20167;-67
2022/01/15 12:01:57;;;;;;;19.55;9.85;;;3.80;99.90;;;;;;5105782;28;20599;-71
2022/01/15 12:04:37;;;;;;;11.90;8.07;;;3.80;99.90;;;;;;5097407;28;20437;-70
2022/01/15 12:07:05;;;;;;;13.57;8.82;;;3.80;99.90;;;;;;5094077;28;20259;-67
2022/01/15 12:09:38;;;;;;;10.32;8.35;;;3.70;99.90;;;;;;5099898;28;20171;-69
2022/01/15 12:12:38;;;;;;;11.98;8.20;;;3.70;99.90;;;;;;5106963;28;20986;-69
2022/01/15 12:15:07;;;;;;;12.85;9.75;;;3.80;99.90;;;;;;5098918;28;20179;-66
2022/01/15 12:17:36;;;;;;;13.35;10.20;;;3.70;99.90;;;;;;5113128;28;20197;-69
2022/01/15 12:20:28;;;;;;;11.15;8.90;;;3.70;99.90;;;;;;5113123;28;20179;-67
2022/01/15 12:23:23;;;;;;;13.05;10.48;;;3.70;99.90;;;;;;5112494;28;20283;-70
2022/01/15 12:25:58;;;;;;;11.13;8.75;;;3.70;99.90;;;;;;5113328;28;20221;-68
2022/01/15 12:28:27;;;;;;;14.38;10.75;;;3.60;99.90;;;;;;5114007;28;20171;-67
2022/01/15 12:30:57;;;;;;;17.17;9.65;;;3.60;99.90;;;;;;5113557;28;20159;-68
2022/01/15 12:33:24;;;;;;;28.23;15.27;;;3.70;99.90;;;;;;5112213;28;20199;-67
2022/01/15 12:35:53;;;;;;;14.60;9.93;;;3.70;99.90;;;;;;5100873;28;20502;-66
2022/01/15 12:38:25;;;;;;;14.57;12.25;;;3.70;99.90;;;;;;5105916;28;20171;-69
2022/01/15 12:40:58;;;;;;;12.95;11.65;;;3.60;99.90;;;;;;5109396;28;20225;-67
2022/01/15 12:43:40;;;;;;;17.75;9.90;;;3.50;99.90;;;;;;5111455;28;20206;-70
2022/01/15 12:46:40;;;;;;;14.80;9.85;;;3.50;99.90;;;;;;5103557;28;20276;-70
2022/01/15 12:49:08;;;;;;;13.82;11.57;;;3.40;99.90;;;;;;5104492;28;20884;-68
2022/01/15 12:51:33;;;;;;;16.70;10.50;;;3.30;99.90;;;;;;5109718;28;20175;-66
2022/01/15 12:54:03;;;;;;;11.07;7.53;;;3.30;99.90;;;;;;5101882;28;20186;-67
2022/01/15 12:56:39;;;;;;;14.75;10.45;;;3.20;99.90;;;;;;5099147;28;20180;-70
2022/01/15 12:59:05;;;;;;;11.75;9.02;;;3.20;99.90;;;;;;5106833;28;20179;-68
2022/01/15 13:01:45;;;;;;;14.93;8.70;;;3.20;99.90;;;;;;5112465;28;20171;-68
2022/01/15 13:04:11;;;;;;;10.93;8.43;;;3.20;99.90;;;;;;5112880;28;20233;-68
2022/01/15 13:06:47;;;;;;;14.60;10.00;;;3.30;99.90;;;;;;5115718;28;20163;-68
2022/01/15 13:09:13;;;;;;;11.77;9.38;;;3.30;99.90;;;;;;5116683;28;20245;-67
2022/01/15 13:11:48;;;;;;;12.53;9.17;;;3.30;99.90;;;;;;5116385;28;20275;-67
2022/01/15 13:14:15;;;;;;;14.77;10.25;;;3.40;99.90;;;;;;5109936;28;20751;-70
2022/01/15 13:16:56;;;;;;;10.93;9.82;;;3.30;99.90;;;;;;5105739;28;20171;-68